East Beckley, West Virginia
Current Conditions -  °F | °C
As of 7:51 AM on Monday 29 Dec 2014 (Local Time) from KBKW Reporting Station
Moderate Fog Moderate Fog  
Wind Chill: 31°   Ceiling: 300
Heat Index: 35°   Visibility: 0.5mi
Dew Point: 33°   Wind: 5mph
Humidity: 92%   Direction: 360°N
Pressure: 30.09"   Gusts: NA
Location:  37.8169°N, 81.243°W
Report Text: KBKW 291251Z AUTO 36004KT 1/2SM FG VV003 02/01 A3009 RMK AO2 SLP207 T00170006
Loading
Personal Weather Stations






























Interactive Weather Map New forecast layout! Learn more

10-Day Weather Forecast

Advertisements
Track Severe Weather on mobile